Terminal Aerodrome Forecast
Issued by NWS Cleveland, OH

Home | Current Version | Previous Version | Graphics & Text | Print | Product List | Glossary On
Versions: 1 2 3 4 5 6 7 8 9 10 11 12 13 14 15 16 17 18 19 20 21 22
000
FTUS41 KCLE 142300
TAFTOL
TAF
KTOL 142340Z 1500/1524 VRB03KT P6SM SKC
     FM150600 00000KT P6SM BKN250
     FM151300 24005KT P6SM SCT100 BKN250
     FM151800 25005KT P6SM -RA BKN045 OVC100
     FM152100 25005KT 4SM -RA BR OVC030=

USA.gov is the U.S. government's official web portal to all federal, state and local government web resources and services.